createdAt,value
2018-12-20T00:00:11.387Z,13.10
2018-12-20T00:01:11.486Z,14.19
2018-12-20T00:02:11.449Z,12.39
2018-12-20T00:03:11.349Z,15.19
2018-12-20T00:04:11.341Z,13.50
2018-12-20T00:05:11.379Z,13.69
2018-12-20T00:06:11.309Z,12.69
2018-12-20T00:07:11.381Z,13.00
2018-12-20T00:08:11.326Z,13.80
2018-12-20T00:09:11.305Z,13.19
2018-12-20T00:10:11.262Z,13.19
2018-12-20T00:11:11.300Z,12.60
2018-12-20T00:12:11.243Z,13.10
2018-12-20T00:13:11.285Z,12.80
2018-12-20T00:14:11.220Z,12.00
2018-12-20T00:15:11.210Z,12.69
2018-12-20T00:16:11.265Z,11.60
2018-12-20T00:17:11.205Z,12.60
2018-12-20T00:18:11.177Z,12.69
2018-12-20T00:19:11.358Z,11.89
2018-12-20T00:20:11.168Z,13.00
2018-12-20T00:21:11.168Z,12.80
2018-12-20T00:22:11.198Z,12.39
2018-12-20T00:23:11.124Z,13.00
2018-12-20T00:24:11.120Z,12.50
2018-12-20T00:25:11.281Z,13.39
2018-12-20T00:26:11.193Z,12.89
2018-12-20T00:27:11.076Z,12.80
2018-12-20T00:28:11.063Z,13.30
2018-12-20T00:29:11.081Z,14.39
2018-12-20T00:30:11.055Z,14.00
2018-12-20T00:31:13.663Z,13.69
2018-12-20T00:32:11.021Z,14.50
2018-12-20T00:33:11.124Z,13.39
2018-12-20T00:34:11.199Z,13.30
2018-12-20T00:35:10.990Z,13.69
2018-12-20T00:36:10.999Z,13.60
2018-12-20T00:37:11.024Z,13.00
2018-12-20T00:38:11.096Z,12.80
2018-12-20T00:39:11.096Z,12.50
2018-12-20T00:40:11.069Z,14.10
2018-12-20T00:41:11.070Z,12.69
2018-12-20T00:42:10.923Z,12.50
2018-12-20T00:43:10.942Z,12.69
2018-12-20T00:44:10.907Z,12.80
2018-12-20T00:45:11.000Z,12.39
2018-12-20T00:46:10.905Z,12.00
2018-12-20T00:47:10.949Z,11.80
2018-12-20T00:48:10.842Z,12.69
2018-12-20T00:49:10.841Z,13.00
2018-12-20T00:50:10.866Z,11.30
2018-12-20T00:51:10.896Z,12.00
2018-12-20T00:52:10.918Z,12.60
2018-12-20T00:53:10.787Z,12.30
2018-12-20T00:54:10.777Z,11.50
2018-12-20T00:55:10.855Z,11.39
2018-12-20T00:56:10.801Z,12.60
2018-12-20T00:57:10.822Z,12.80
2018-12-20T00:58:10.813Z,12.39
2018-12-20T00:59:10.721Z,13.60
2018-12-20T01:00:10.764Z,12.69
2018-12-20T01:01:10.699Z,11.19
2018-12-20T01:02:10.690Z,12.10
2018-12-20T01:03:10.801Z,11.69
2018-12-20T01:04:10.690Z,11.39
2018-12-20T01:05:10.767Z,11.60
2018-12-20T01:06:10.644Z,11.80
2018-12-20T01:07:10.655Z,11.30
2018-12-20T01:08:10.621Z,11.89
2018-12-20T01:09:10.642Z,10.80
2018-12-20T01:10:10.599Z,12.19
2018-12-20T01:11:10.589Z,12.30
2018-12-20T01:12:10.735Z,12.00
2018-12-20T01:13:10.793Z,10.80
2018-12-20T01:14:10.684Z,11.69
2018-12-20T01:15:10.543Z,11.00
2018-12-20T01:16:10.786Z,11.10
2018-12-20T01:17:10.527Z,10.30
2018-12-20T01:18:10.595Z,10.30
2018-12-20T01:19:10.649Z,10.19
2018-12-20T01:20:10.496Z,11.30
2018-12-20T01:21:10.479Z,10.89
2018-12-20T01:22:10.496Z,13.30
2018-12-20T01:23:10.533Z,12.00
2018-12-20T01:24:10.498Z,11.89
2018-12-20T01:25:10.561Z,11.60
2018-12-20T01:26:10.581Z,11.69
2018-12-20T01:27:10.574Z,12.19
2018-12-20T01:28:10.443Z,13.69
2018-12-20T01:29:10.389Z,12.10
2018-12-20T01:30:10.389Z,13.19
2018-12-20T01:31:10.371Z,12.89
2018-12-20T01:32:10.475Z,14.30
2018-12-20T01:33:10.345Z,13.50
2018-12-20T01:34:10.349Z,13.00
2018-12-20T01:35:10.323Z,13.50
2018-12-20T01:36:10.363Z,13.80
2018-12-20T01:37:10.482Z,12.39
2018-12-20T01:38:10.288Z,13.30
2018-12-20T01:39:10.469Z,13.19
2018-12-20T01:40:10.317Z,13.69
2018-12-20T01:41:10.258Z,12.60
2018-12-20T01:42:10.247Z,12.60
2018-12-20T01:43:10.381Z,13.10
2018-12-20T01:44:10.256Z,12.69
2018-12-20T01:45:10.212Z,14.10
2018-12-20T01:46:10.237Z,12.19
2018-12-20T01:47:10.191Z,12.60
2018-12-20T01:48:10.276Z,12.30
2018-12-20T01:49:10.276Z,12.89
2018-12-20T01:50:10.298Z,12.19
2018-12-20T01:51:10.303Z,13.50
2018-12-20T01:52:10.260Z,12.10
2018-12-20T01:53:10.123Z,12.60
2018-12-20T01:54:10.147Z,12.89
2018-12-20T01:55:10.353Z,12.30
2018-12-20T01:56:10.261Z,12.60
2018-12-20T01:57:10.261Z,12.00
2018-12-20T01:58:10.068Z,14.10
2018-12-20T01:59:10.201Z,11.80
2018-12-20T02:00:10.050Z,13.69
2018-12-20T02:01:10.231Z,12.60
2018-12-20T02:02:10.024Z,12.39
2018-12-20T02:03:10.152Z,13.50
2018-12-20T02:04:10.011Z,13.10
2018-12-20T02:05:10.005Z,13.10
2018-12-20T02:06:09.978Z,14.39
2018-12-20T02:07:10.104Z,12.19
2018-12-20T02:08:10.051Z,13.00
2018-12-20T02:09:09.985Z,13.50
2018-12-20T02:10:09.936Z,12.80
2018-12-20T02:11:10.063Z,12.10
2018-12-20T02:12:09.927Z,12.30
2018-12-20T02:13:09.943Z,13.39
2018-12-20T02:14:09.934Z,13.80
2018-12-20T02:15:10.018Z,13.19
2018-12-20T02:16:09.894Z,13.50
2018-12-20T02:17:10.042Z,13.10
2018-12-20T02:18:09.848Z,12.89
2018-12-20T02:19:09.967Z,11.60
2018-12-20T02:20:09.898Z,13.30
2018-12-20T02:21:09.964Z,12.10
2018-12-20T02:22:09.878Z,12.50
2018-12-20T02:23:09.797Z,12.69
2018-12-20T02:24:09.872Z,12.39
2018-12-20T02:25:09.770Z,11.30
2018-12-20T02:26:09.864Z,14.50
2018-12-20T02:27:09.922Z,12.10
2018-12-20T02:28:09.736Z,11.00
2018-12-20T02:29:09.863Z,12.10
2018-12-20T02:30:09.824Z,11.30
2018-12-20T02:31:09.708Z,11.19
2018-12-20T02:32:09.797Z,10.60
2018-12-20T02:33:09.681Z,10.80
2018-12-20T02:34:09.923Z,10.69
2018-12-20T02:35:09.765Z,8.89
2018-12-20T02:36:09.829Z,7.90
2018-12-20T02:37:09.670Z,9.00
2018-12-20T02:38:09.712Z,9.10
2018-12-20T02:39:09.615Z,9.00
2018-12-20T02:40:09.727Z,8.60
2018-12-20T02:41:09.745Z,8.80
2018-12-20T02:42:09.582Z,8.39
2018-12-20T02:43:09.571Z,11.69
2018-12-20T02:44:09.560Z,9.69
2018-12-20T02:45:10.911Z,8.69
2018-12-20T02:46:09.674Z,8.69
2018-12-20T02:47:09.526Z,9.69
2018-12-20T02:48:09.687Z,8.10
2018-12-20T02:49:09.586Z,8.69
2018-12-20T02:50:09.657Z,7.40
2018-12-20T02:51:09.481Z,8.50
2018-12-20T02:52:09.486Z,9.80
2018-12-20T02:53:09.727Z,9.10
2018-12-20T02:54:09.456Z,7.00
2018-12-20T02:55:09.565Z,7.90
2018-12-20T02:56:09.428Z,7.40
2018-12-20T02:57:09.420Z,9.19
2018-12-20T02:58:09.462Z,7.80
2018-12-20T02:59:09.399Z,8.10
2018-12-20T03:00:09.384Z,9.00
2018-12-20T03:01:09.376Z,7.90
2018-12-20T03:02:09.578Z,8.39
2018-12-20T03:03:09.576Z,7.40
2018-12-20T03:04:09.361Z,8.00
2018-12-20T03:05:09.435Z,9.19
2018-12-20T03:06:09.325Z,8.80
2018-12-20T03:07:09.485Z,7.80
2018-12-20T03:08:09.371Z,8.80
2018-12-20T03:09:09.455Z,8.30
2018-12-20T03:10:09.393Z,9.00
2018-12-20T03:11:09.332Z,7.69
2018-12-20T03:12:09.293Z,9.50
2018-12-20T03:13:09.238Z,9.69
2018-12-20T03:14:09.377Z,8.19
2018-12-20T03:15:09.337Z,8.30
2018-12-20T03:16:09.310Z,9.30
2018-12-20T03:17:09.214Z,8.50
2018-12-20T03:18:09.214Z,8.30
2018-12-20T03:19:09.195Z,8.89
2018-12-20T03:20:09.228Z,8.60
2018-12-20T03:21:09.248Z,7.90
2018-12-20T03:22:09.392Z,8.50
2018-12-20T03:23:09.132Z,7.90
2018-12-20T03:24:09.116Z,7.09
2018-12-20T03:25:09.458Z,8.19
2018-12-20T03:26:09.237Z,8.10
2018-12-20T03:27:09.170Z,7.59
2018-12-20T03:28:09.219Z,7.40
2018-12-20T03:29:09.067Z,8.19
2018-12-20T03:30:09.054Z,8.80
2018-12-20T03:31:09.200Z,9.19
2018-12-20T03:32:09.035Z,8.80
2018-12-20T03:33:10.635Z,8.00
2018-12-20T03:34:09.007Z,8.30
2018-12-20T03:35:09.063Z,6.50
2018-12-20T03:36:08.984Z,7.69
2018-12-20T03:37:09.188Z,7.40
2018-12-20T03:38:08.963Z,8.19
2018-12-20T03:39:08.966Z,7.59
2018-12-20T03:40:09.071Z,7.40
2018-12-20T03:41:08.965Z,7.69
2018-12-20T03:42:08.919Z,8.60
2018-12-20T03:43:08.907Z,7.19
2018-12-20T03:44:08.975Z,8.00
2018-12-20T03:45:09.000Z,8.60
2018-12-20T03:46:08.924Z,8.60
2018-12-20T03:47:08.953Z,9.60
2018-12-20T03:48:08.869Z,9.39
2018-12-20T03:49:08.916Z,8.80
2018-12-20T03:50:08.866Z,8.19
2018-12-20T03:51:08.944Z,7.50
2018-12-20T03:52:09.046Z,7.30
2018-12-20T03:53:08.929Z,8.60
2018-12-20T03:54:09.010Z,6.90
2018-12-20T03:55:09.032Z,7.09
2018-12-20T03:56:09.032Z,7.50
2018-12-20T03:57:08.872Z,8.30
2018-12-20T03:58:08.743Z,9.10
2018-12-20T03:59:08.896Z,7.50
2018-12-20T04:00:08.866Z,7.80
2018-12-20T04:01:08.710Z,7.69
2018-12-20T04:02:09.033Z,8.10
2018-12-20T04:03:08.923Z,7.69
2018-12-20T04:04:08.947Z,8.60
2018-12-20T04:05:08.805Z,7.09
2018-12-20T04:06:08.757Z,8.60
2018-12-20T04:07:08.720Z,8.00
2018-12-20T04:08:08.704Z,7.50
2018-12-20T04:09:08.621Z,6.50
2018-12-20T04:10:08.645Z,6.69
2018-12-20T04:11:08.610Z,7.90
2018-12-20T04:12:08.588Z,7.19
2018-12-20T04:13:08.578Z,8.60
2018-12-20T04:14:08.586Z,7.50
2018-12-20T04:15:08.615Z,8.89
2018-12-20T04:16:08.905Z,7.69
2018-12-20T04:17:08.776Z,7.19
2018-12-20T04:18:08.608Z,7.59
2018-12-20T04:19:08.667Z,8.50
2018-12-20T04:20:08.612Z,6.80
2018-12-20T04:21:08.701Z,7.80
2018-12-20T04:22:08.475Z,7.90
2018-12-20T04:23:08.773Z,7.09
2018-12-20T04:24:08.783Z,7.50
2018-12-20T04:25:08.519Z,7.19
2018-12-20T04:26:08.694Z,7.90
2018-12-20T04:27:08.558Z,6.59
2018-12-20T04:28:08.699Z,9.10
2018-12-20T04:29:08.399Z,7.09
2018-12-20T04:30:08.647Z,7.40
2018-12-20T04:31:08.495Z,7.19
2018-12-20T04:32:08.554Z,7.09
2018-12-20T04:33:08.484Z,6.30
2018-12-20T04:34:08.352Z,6.50
2018-12-20T04:35:08.568Z,6.59
2018-12-20T04:36:08.482Z,7.00
2018-12-20T04:37:08.541Z,6.59
2018-12-20T04:38:08.382Z,6.59
2018-12-20T04:39:08.548Z,5.69
2018-12-20T04:40:08.278Z,6.19
2018-12-20T04:41:08.470Z,6.80
2018-12-20T04:42:08.268Z,6.80
2018-12-20T04:43:08.290Z,6.30
2018-12-20T04:44:08.405Z,6.59
2018-12-20T04:45:08.451Z,6.80
2018-12-20T04:46:08.212Z,8.19
2018-12-20T04:47:08.485Z,7.09
2018-12-20T04:48:08.376Z,5.09
2018-12-20T04:49:08.371Z,7.19
2018-12-20T04:50:08.332Z,6.09
2018-12-20T04:51:08.189Z,6.59
2018-12-20T04:52:08.326Z,6.30
2018-12-20T04:53:08.193Z,4.80
2018-12-20T04:54:08.128Z,5.30
2018-12-20T04:55:08.220Z,6.90
2018-12-20T04:56:08.228Z,5.69
2018-12-20T04:57:08.091Z,5.80
2018-12-20T04:58:08.398Z,6.09
2018-12-20T04:59:08.369Z,5.90
2018-12-20T05:00:08.061Z,5.90
2018-12-20T05:01:08.047Z,5.50
2018-12-20T05:02:08.061Z,6.30
2018-12-20T05:03:08.224Z,6.59
2018-12-20T05:04:08.016Z,5.69
2018-12-20T05:05:08.229Z,7.19
2018-12-20T05:06:07.993Z,6.69
2018-12-20T05:07:08.016Z,6.19
2018-12-20T05:08:08.077Z,5.50
2018-12-20T05:09:08.047Z,5.59
2018-12-20T05:10:08.052Z,6.09
2018-12-20T05:11:07.944Z,9.30
2018-12-20T05:12:07.975Z,5.90
2018-12-20T05:13:07.934Z,6.80
2018-12-20T05:14:07.910Z,6.09
2018-12-20T05:15:08.104Z,6.30
2018-12-20T05:16:08.199Z,6.90
2018-12-20T05:17:07.907Z,5.80
2018-12-20T05:18:07.860Z,6.40
2018-12-20T05:19:07.852Z,6.40
2018-12-20T05:20:07.838Z,7.30
2018-12-20T05:21:08.125Z,6.30
2018-12-20T05:22:07.840Z,8.80
2018-12-20T05:23:08.156Z,7.19
2018-12-20T05:24:07.795Z,7.09
2018-12-20T05:25:07.792Z,7.00
2018-12-20T05:26:07.770Z,7.30
2018-12-20T05:27:07.829Z,6.40
2018-12-20T05:28:07.767Z,7.19
2018-12-20T05:29:07.767Z,7.30
2018-12-20T05:30:07.815Z,5.80
2018-12-20T05:31:08.798Z,5.80
2018-12-20T05:32:07.903Z,6.80
2018-12-20T05:33:07.701Z,7.80
2018-12-20T05:34:07.840Z,7.19
2018-12-20T05:35:07.739Z,6.19
2018-12-20T05:36:07.900Z,5.69
2018-12-20T05:37:07.864Z,7.40
2018-12-20T05:38:07.759Z,6.90
2018-12-20T05:39:07.628Z,6.40
2018-12-20T05:40:07.854Z,6.69
2018-12-20T05:41:07.675Z,6.90
2018-12-20T05:42:07.978Z,7.00
2018-12-20T05:43:07.858Z,7.59
2018-12-20T05:44:07.735Z,6.90
2018-12-20T05:45:07.749Z,7.09
2018-12-20T05:46:07.555Z,7.59
2018-12-20T05:47:07.574Z,7.00
2018-12-20T05:48:07.562Z,6.09
2018-12-20T05:49:07.557Z,7.69
2018-12-20T05:50:07.597Z,6.59
2018-12-20T05:51:07.706Z,6.19
2018-12-20T05:52:07.499Z,7.40
2018-12-20T05:53:07.477Z,6.90
2018-12-20T05:54:07.523Z,7.19
2018-12-20T05:55:07.492Z,6.40
2018-12-20T05:56:07.444Z,6.50
2018-12-20T05:57:07.615Z,8.00
2018-12-20T05:58:07.426Z,6.30
2018-12-20T05:59:07.415Z,8.10
2018-12-20T06:00:07.419Z,8.50
2018-12-20T06:01:07.610Z,8.30
2018-12-20T06:02:07.479Z,7.90
2018-12-20T06:03:07.506Z,8.69
2018-12-20T06:04:07.367Z,8.19
2018-12-20T06:05:07.348Z,7.50
2018-12-20T06:06:07.333Z,5.90
2018-12-20T06:07:07.461Z,6.40
2018-12-20T06:08:07.313Z,6.50
2018-12-20T06:09:07.303Z,7.59
2018-12-20T06:10:07.296Z,7.40
2018-12-20T06:11:07.475Z,6.69
2018-12-20T06:12:07.338Z,7.59
2018-12-20T06:13:07.296Z,6.80
2018-12-20T06:14:07.479Z,9.10
2018-12-20T06:15:07.236Z,7.30
2018-12-20T06:16:12.557Z,9.39
2018-12-20T06:17:07.427Z,7.50
2018-12-20T06:18:07.207Z,5.90
2018-12-20T06:19:07.373Z,8.89
2018-12-20T06:20:07.413Z,7.69
2018-12-20T06:21:07.175Z,6.40
2018-12-20T06:22:07.447Z,6.69
2018-12-20T06:23:07.150Z,7.50
2018-12-20T06:24:07.138Z,5.19
2018-12-20T06:25:07.128Z,7.30
2018-12-20T06:26:07.115Z,5.90
2018-12-20T06:27:07.104Z,6.19
2018-12-20T06:28:07.093Z,7.40
2018-12-20T06:29:07.083Z,7.19
2018-12-20T06:30:07.073Z,6.09
2018-12-20T06:31:07.065Z,6.90
2018-12-20T06:32:07.050Z,6.90
2018-12-20T06:33:07.040Z,6.00
2018-12-20T06:34:07.034Z,6.90
2018-12-20T06:35:07.029Z,8.60
2018-12-20T06:36:07.007Z,6.80
2018-12-20T06:37:06.996Z,7.50
2018-12-20T06:38:06.989Z,6.80
2018-12-20T06:39:06.977Z,7.09
2018-12-20T06:40:06.965Z,7.00
2018-12-20T06:41:06.952Z,6.59
2018-12-20T06:42:06.941Z,6.09
2018-12-20T06:43:06.934Z,5.30
2018-12-20T06:44:07.340Z,5.09
2018-12-20T06:45:06.913Z,6.50
2018-12-20T06:46:06.899Z,7.19
2018-12-20T06:47:06.886Z,8.69
2018-12-20T06:48:06.887Z,6.19
2018-12-20T06:49:06.863Z,5.09
2018-12-20T06:50:06.855Z,9.80
2018-12-20T06:51:06.844Z,6.40
2018-12-20T06:52:06.831Z,6.69
2018-12-20T06:53:06.819Z,6.40
2018-12-20T06:54:06.810Z,5.00
2018-12-20T06:55:06.821Z,5.00
2018-12-20T06:56:06.821Z,5.30
2018-12-20T06:57:06.805Z,5.00
2018-12-20T06:58:06.848Z,6.30
2018-12-20T06:59:06.836Z,6.50
2018-12-20T07:00:06.742Z,5.90
2018-12-20T07:01:06.766Z,4.90
2018-12-20T07:02:06.723Z,5.90
2018-12-20T07:03:06.711Z,5.19
2018-12-20T07:04:06.702Z,4.69
2018-12-20T07:05:06.698Z,5.40
2018-12-20T07:06:06.679Z,5.59
2018-12-20T07:07:06.668Z,4.90
2018-12-20T07:08:06.655Z,4.90
2018-12-20T07:09:06.645Z,4.80
2018-12-20T07:10:06.635Z,4.90
2018-12-20T07:11:06.625Z,4.00
2018-12-20T07:12:06.615Z,5.09
2018-12-20T07:13:06.601Z,5.30
2018-12-20T07:14:06.598Z,3.59
2018-12-20T07:15:06.579Z,5.40
2018-12-20T07:16:06.570Z,4.90
2018-12-20T07:17:06.558Z,4.50
2018-12-20T07:18:06.548Z,4.00
2018-12-20T07:19:06.536Z,4.40
2018-12-20T07:20:06.524Z,3.79
2018-12-20T07:21:06.515Z,4.19
2018-12-20T07:22:06.505Z,5.59
2018-12-20T07:23:06.494Z,4.00
2018-12-20T07:24:06.483Z,3.79
2018-12-20T07:25:06.472Z,3.79
2018-12-20T07:26:06.464Z,3.40
2018-12-20T07:27:06.453Z,3.50
2018-12-20T07:28:06.442Z,3.20
2018-12-20T07:29:06.426Z,3.40
2018-12-20T07:30:06.415Z,3.90
2018-12-20T07:31:06.404Z,3.20
2018-12-20T07:32:06.395Z,3.09
2018-12-20T07:33:06.491Z,4.59
2018-12-20T07:34:06.371Z,4.80
2018-12-20T07:35:06.362Z,3.00
2018-12-20T07:36:06.350Z,3.70
2018-12-20T07:37:06.344Z,2.90
2018-12-20T07:38:06.327Z,3.00
2018-12-20T07:39:06.315Z,3.90
2018-12-20T07:40:06.304Z,4.59
2018-12-20T07:41:06.294Z,3.00
2018-12-20T07:42:06.284Z,5.50
2018-12-20T07:43:06.277Z,3.00
2018-12-20T07:44:06.262Z,3.20
2018-12-20T07:45:06.252Z,3.29
2018-12-20T07:46:06.242Z,3.50
2018-12-20T07:47:06.231Z,3.20
2018-12-20T07:48:06.218Z,3.50
2018-12-20T07:49:06.212Z,3.00
2018-12-20T07:50:06.202Z,4.90
2018-12-20T07:51:06.190Z,4.69
2018-12-20T07:52:06.176Z,2.79
2018-12-20T07:53:06.163Z,3.09
2018-12-20T07:54:06.247Z,3.09
2018-12-20T07:55:06.140Z,4.30
2018-12-20T07:56:06.130Z,4.50
2018-12-20T07:57:06.119Z,4.09
2018-12-20T07:58:06.107Z,3.09
2018-12-20T07:59:06.096Z,2.90
2018-12-20T08:00:06.088Z,3.20
2018-12-20T08:01:06.077Z,3.20
2018-12-20T08:02:06.062Z,4.09
2018-12-20T08:03:06.055Z,4.40
2018-12-20T08:04:06.044Z,4.59
2018-12-20T08:05:06.033Z,3.59
2018-12-20T08:06:06.021Z,2.40
2018-12-20T08:07:06.007Z,6.40
2018-12-20T08:08:05.998Z,3.50
2018-12-20T08:09:05.986Z,6.19
2018-12-20T08:10:05.980Z,5.09
2018-12-20T08:11:05.966Z,4.80
2018-12-20T08:12:05.964Z,4.40
2018-12-20T08:13:05.944Z,4.00
2018-12-20T08:14:05.935Z,3.50
2018-12-20T08:15:05.920Z,6.30
2018-12-20T08:16:05.910Z,2.90
2018-12-20T08:17:05.898Z,3.29
2018-12-20T08:18:05.887Z,4.09
2018-12-20T08:19:05.881Z,4.30
2018-12-20T08:20:05.878Z,3.70
2018-12-20T08:21:05.864Z,2.90
2018-12-20T08:22:05.947Z,4.69
2018-12-20T08:23:05.843Z,3.50
2018-12-20T08:24:05.827Z,3.90
2018-12-20T08:25:05.822Z,8.19
2018-12-20T08:26:05.803Z,5.30
2018-12-20T08:27:05.790Z,5.90
2018-12-20T08:28:05.778Z,5.19
2018-12-20T08:29:05.777Z,4.50
2018-12-20T08:30:05.757Z,5.40
2018-12-20T08:31:05.747Z,7.09
2018-12-20T08:32:05.737Z,5.19
2018-12-20T08:33:05.723Z,4.69
2018-12-20T08:34:05.713Z,4.50
2018-12-20T08:35:05.704Z,4.59
2018-12-20T08:36:05.692Z,5.90
2018-12-20T08:37:05.682Z,5.69
2018-12-20T08:38:05.669Z,4.69
2018-12-20T08:39:05.658Z,4.40
2018-12-20T08:40:05.649Z,4.00
2018-12-20T08:41:05.636Z,3.50
2018-12-20T08:42:05.627Z,5.09
2018-12-20T08:43:05.632Z,5.80
2018-12-20T08:44:05.608Z,5.80
2018-12-20T08:45:05.593Z,4.69
2018-12-20T08:46:05.585Z,4.59
2018-12-20T08:47:05.570Z,4.50
2018-12-20T08:48:05.560Z,5.30
2018-12-20T08:49:05.548Z,5.59
2018-12-20T08:50:05.540Z,6.19
2018-12-20T08:51:05.528Z,5.30
2018-12-20T08:52:05.516Z,5.50
2018-12-20T08:53:05.508Z,6.30
2018-12-20T08:54:05.500Z,7.80
2018-12-20T08:55:05.490Z,9.30
2018-12-20T08:56:05.477Z,10.19
2018-12-20T08:57:05.460Z,6.19
2018-12-20T08:58:05.455Z,9.30
2018-12-20T08:59:05.442Z,6.19
2018-12-20T09:00:05.429Z,11.30
2018-12-20T09:01:05.521Z,9.89
2018-12-20T09:02:05.417Z,11.19
2018-12-20T09:03:05.396Z,9.39
2018-12-20T09:04:05.386Z,9.80
2018-12-20T09:05:05.375Z,7.80
2018-12-20T09:06:05.362Z,7.30
2018-12-20T09:07:05.351Z,8.19
2018-12-20T09:08:05.343Z,8.39
2018-12-20T09:09:05.332Z,7.90
2018-12-20T09:10:05.319Z,7.09
2018-12-20T09:11:05.309Z,7.40
2018-12-20T09:12:05.299Z,6.19
2018-12-20T09:13:09.512Z,5.69
2018-12-20T09:14:05.274Z,5.90
2018-12-20T09:15:05.268Z,5.69
2018-12-20T09:16:05.252Z,9.30
2018-12-20T09:17:05.243Z,5.90
2018-12-20T09:18:05.231Z,7.59
2018-12-20T09:19:05.221Z,6.59
2018-12-20T09:20:05.208Z,5.09
2018-12-20T09:21:05.199Z,6.09
2018-12-20T09:22:05.192Z,6.00
2018-12-20T09:23:05.177Z,6.90
2018-12-20T09:24:05.166Z,6.50
2018-12-20T09:25:05.157Z,5.69
2018-12-20T09:26:05.144Z,8.80
2018-12-20T09:27:05.134Z,7.90
2018-12-20T09:28:05.126Z,7.59
2018-12-20T09:29:05.110Z,7.19
2018-12-20T09:30:05.102Z,6.19
2018-12-20T09:31:05.090Z,7.00
2018-12-20T09:32:05.079Z,6.00
2018-12-20T09:33:05.083Z,5.69
2018-12-20T09:34:05.056Z,5.50
2018-12-20T09:35:05.046Z,6.90
2018-12-20T09:36:05.037Z,7.00
2018-12-20T09:37:05.105Z,7.19
2018-12-20T09:38:05.013Z,8.00
2018-12-20T09:39:05.003Z,6.90
2018-12-20T09:40:04.990Z,6.40
2018-12-20T09:41:05.041Z,6.40
2018-12-20T09:42:04.971Z,6.40
2018-12-20T09:43:04.959Z,5.59
2018-12-20T09:44:04.952Z,4.00
2018-12-20T09:45:04.949Z,6.00
2018-12-20T09:46:04.931Z,5.40
2018-12-20T09:47:11.690Z,6.19
2018-12-20T09:51:17.162Z,4.00
2018-12-20T09:52:17.152Z,5.69
2018-12-20T09:53:17.141Z,6.00
2018-12-20T09:54:17.128Z,5.80
2018-12-20T09:55:17.118Z,6.00
2018-12-20T09:56:17.118Z,5.50
2018-12-20T09:57:17.098Z,5.00
2018-12-20T09:58:17.090Z,4.30
2018-12-20T09:59:17.080Z,6.19
2018-12-20T10:00:17.063Z,5.90
2018-12-20T10:01:17.057Z,6.00
2018-12-20T10:02:17.040Z,6.59
2018-12-20T10:03:17.028Z,4.30
2018-12-20T10:04:17.018Z,4.40
2018-12-20T10:05:17.007Z,8.00
2018-12-20T10:06:16.995Z,6.90
2018-12-20T10:07:16.984Z,4.69
2018-12-20T10:08:16.974Z,5.59
2018-12-20T10:09:16.964Z,5.50
2018-12-20T10:10:16.951Z,5.80
2018-12-20T10:11:16.943Z,6.19
2018-12-20T10:12:16.931Z,7.59
2018-12-20T10:13:16.918Z,8.19
2018-12-20T10:14:16.908Z,6.80
2018-12-20T10:15:16.997Z,6.80
2018-12-20T10:16:16.890Z,4.59
2018-12-20T10:17:19.975Z,6.09
2018-12-20T10:18:16.863Z,7.19
2018-12-20T10:19:16.851Z,6.40
2018-12-20T10:20:16.841Z,4.30
2018-12-20T10:21:16.829Z,4.59
2018-12-20T10:22:16.819Z,6.69
2018-12-20T10:23:16.807Z,5.69
2018-12-20T10:24:16.800Z,5.90
2018-12-20T10:25:16.787Z,6.09
2018-12-20T10:26:16.773Z,6.09
2018-12-20T10:27:16.765Z,5.00
2018-12-20T10:28:16.754Z,8.89
2018-12-20T10:29:16.740Z,5.59
2018-12-20T10:30:16.729Z,5.19
2018-12-20T10:31:16.718Z,4.50
2018-12-20T10:32:16.709Z,3.79
2018-12-20T10:33:17.828Z,5.59
2018-12-20T10:34:16.686Z,4.40
2018-12-20T10:35:16.678Z,3.59
2018-12-20T10:36:16.664Z,4.30
2018-12-20T10:37:16.653Z,5.40
2018-12-20T10:38:16.643Z,3.20
2018-12-20T10:39:16.629Z,5.40
2018-12-20T10:40:16.619Z,5.19
2018-12-20T10:41:16.610Z,6.69
2018-12-20T10:42:16.599Z,6.19
2018-12-20T10:43:16.597Z,5.80
2018-12-20T10:44:16.575Z,5.09
2018-12-20T10:45:16.566Z,5.69
2018-12-20T10:46:16.552Z,4.90
2018-12-20T10:47:16.542Z,5.40
2018-12-20T10:48:16.531Z,6.30
2018-12-20T10:49:16.519Z,6.80
2018-12-20T10:50:16.511Z,4.69
2018-12-20T10:51:16.499Z,5.09
2018-12-20T10:52:16.487Z,4.09
2018-12-20T10:53:16.480Z,9.89
2018-12-20T10:54:16.463Z,6.59
2018-12-20T10:55:16.464Z,5.90
2018-12-20T10:56:16.442Z,7.80
2018-12-20T10:57:16.431Z,7.30
2018-12-20T10:58:16.420Z,4.90
2018-12-20T10:59:16.408Z,6.30
2018-12-20T11:00:16.403Z,5.19
2018-12-20T11:01:16.386Z,6.50
2018-12-20T11:02:16.379Z,3.90
2018-12-20T11:03:16.364Z,5.69
2018-12-20T11:04:16.354Z,4.50
2018-12-20T11:05:16.344Z,5.30
2018-12-20T11:06:16.333Z,4.69
2018-12-20T11:07:16.324Z,4.90
2018-12-20T11:08:16.311Z,4.90
2018-12-20T11:09:16.300Z,4.50
2018-12-20T11:10:16.288Z,3.90
2018-12-20T11:11:16.276Z,4.40
2018-12-20T11:12:16.265Z,4.40
2018-12-20T11:13:16.254Z,4.30
2018-12-20T11:14:16.244Z,3.59
2018-12-20T11:15:16.232Z,3.29
2018-12-20T11:16:16.221Z,3.29
2018-12-20T11:17:16.209Z,5.00
2018-12-20T11:18:16.200Z,4.69
2018-12-20T11:19:16.188Z,3.40
2018-12-20T11:20:16.174Z,2.50
2018-12-20T11:21:16.165Z,3.20
2018-12-20T11:22:16.163Z,3.00
2018-12-20T11:23:16.145Z,5.09
2018-12-20T11:24:16.133Z,3.00
2018-12-20T11:25:16.121Z,2.20
2018-12-20T11:26:16.111Z,3.79
2018-12-20T11:27:16.100Z,3.90
2018-12-20T11:28:16.089Z,4.40
2018-12-20T11:29:16.077Z,3.40
2018-12-20T11:30:16.066Z,3.59
2018-12-20T11:31:16.055Z,2.70
2018-12-20T11:32:16.043Z,3.50
2018-12-20T11:33:16.036Z,4.00
2018-12-20T11:34:16.024Z,2.29
2018-12-20T11:35:16.009Z,3.09
2018-12-20T11:36:16.002Z,3.09
2018-12-20T11:37:15.995Z,3.79
2018-12-20T11:38:15.980Z,2.40
2018-12-20T11:39:15.968Z,2.20
2018-12-20T11:40:15.954Z,3.29
2018-12-20T11:41:15.944Z,3.00
2018-12-20T11:42:15.935Z,2.79
2018-12-20T11:43:15.922Z,3.59
2018-12-20T11:44:15.911Z,3.00
2018-12-20T11:45:15.902Z,2.20
2018-12-20T11:46:15.889Z,4.19
2018-12-20T11:47:15.879Z,2.90
2018-12-20T11:48:15.868Z,2.50
2018-12-20T11:49:15.857Z,2.09
2018-12-20T11:50:15.848Z,2.40
2018-12-20T11:51:15.834Z,2.50
2018-12-20T11:52:15.831Z,2.79
2018-12-20T11:53:15.812Z,4.30
2018-12-20T11:54:15.800Z,3.09
2018-12-20T11:55:15.788Z,2.50
2018-12-20T11:56:15.778Z,2.00
2018-12-20T11:57:15.768Z,3.09
2018-12-20T11:58:15.756Z,2.59
2018-12-20T11:59:15.745Z,3.59
2018-12-20T12:00:15.736Z,4.09
2018-12-20T12:01:15.725Z,3.59
2018-12-20T12:02:24.263Z,4.30
2018-12-20T16:20:13.872Z,3.50
2018-12-20T16:21:13.860Z,3.50
2018-12-20T16:22:13.852Z,2.59
2018-12-20T16:23:13.837Z,3.50
2018-12-20T16:24:13.825Z,3.29
2018-12-20T16:25:13.817Z,3.70
2018-12-20T16:26:13.805Z,2.50
2018-12-20T16:27:13.793Z,2.90
2018-12-20T16:28:13.781Z,4.09
2018-12-20T16:29:13.772Z,3.90
2018-12-20T16:30:13.762Z,5.09
2018-12-20T16:31:13.749Z,3.90
2018-12-20T16:32:13.740Z,3.79
2018-12-20T16:33:13.728Z,2.29
2018-12-20T16:34:13.721Z,2.90
2018-12-20T16:35:13.705Z,3.29
2018-12-20T16:36:13.693Z,3.90
2018-12-20T16:37:13.685Z,2.79
2018-12-20T16:38:13.675Z,3.70
2018-12-20T16:39:13.662Z,2.70
2018-12-20T16:40:13.652Z,4.19
2018-12-20T16:41:13.646Z,3.40
2018-12-20T16:42:13.630Z,4.59
2018-12-20T16:43:13.623Z,3.09
2018-12-20T16:44:13.608Z,3.20
2018-12-20T16:45:13.598Z,3.50
2018-12-20T16:46:13.588Z,3.70
2018-12-20T16:47:13.577Z,3.20
2018-12-20T16:48:13.564Z,3.50
2018-12-20T16:49:14.026Z,4.09
2018-12-20T16:50:13.544Z,3.59
2018-12-20T16:51:13.545Z,3.79
2018-12-20T16:52:13.524Z,4.69
2018-12-20T16:53:13.513Z,4.00
2018-12-20T16:54:13.503Z,4.69
2018-12-20T16:55:13.489Z,3.70
2018-12-20T16:56:13.479Z,3.50
2018-12-20T16:57:13.471Z,3.50
2018-12-20T16:58:13.458Z,4.69
2018-12-20T16:59:13.445Z,3.59
2018-12-20T17:00:13.440Z,4.80
2018-12-20T17:01:14.811Z,3.00
2018-12-20T17:02:13.415Z,4.90
2018-12-20T17:03:13.408Z,4.69
2018-12-20T17:04:13.395Z,4.80
2018-12-20T17:05:13.386Z,3.79
2018-12-20T17:06:13.431Z,4.19
2018-12-20T17:07:13.368Z,5.00
2018-12-20T17:08:13.347Z,4.00
2018-12-20T17:09:13.337Z,4.59
2018-12-20T17:10:13.330Z,3.79
2018-12-20T17:11:13.318Z,3.90
2018-12-20T17:12:13.305Z,5.40
2018-12-20T17:13:13.292Z,4.80
2018-12-20T17:14:13.285Z,4.80
2018-12-20T17:15:13.274Z,5.69
2018-12-20T17:16:13.260Z,5.00
2018-12-20T17:17:13.250Z,3.50
2018-12-20T17:18:13.239Z,4.59
2018-12-20T17:19:13.228Z,3.79
2018-12-20T17:20:13.221Z,4.50
2018-12-20T17:21:13.208Z,4.30
2018-12-20T17:22:13.193Z,4.19
2018-12-20T17:23:13.183Z,4.30
2018-12-20T17:24:13.181Z,4.30
2018-12-20T17:25:13.161Z,4.90
2018-12-20T17:26:13.151Z,3.40
2018-12-20T17:27:13.144Z,6.00
2018-12-20T17:28:13.133Z,4.19
2018-12-20T17:29:13.119Z,3.09
2018-12-20T17:30:13.108Z,3.00
2018-12-20T17:31:13.096Z,4.59
2018-12-20T17:32:13.086Z,3.59
2018-12-20T17:33:13.072Z,4.50